sensor_id;sensor_type;location;lat;lon;timestamp;P1;durP1;ratioP1;P2;durP2;ratioP2
22439;SDS011;11387;51.612;7.210;2024-01-30T00:01:40;16.38;;;10.35;;
22439;SDS011;11387;51.612;7.210;2024-01-30T00:04:04;14.30;;;9.48;;
22439;SDS011;11387;51.612;7.210;2024-01-30T00:06:27;15.48;;;9.52;;
22439;SDS011;11387;51.612;7.210;2024-01-30T00:08:51;16.27;;;9.95;;
22439;SDS011;11387;51.612;7.210;2024-01-30T00:11:15;14.52;;;8.95;;
22439;SDS011;11387;51.612;7.210;2024-01-30T00:13:39;13.10;;;9.60;;
22439;SDS011;11387;51.612;7.210;2024-01-30T00:16:02;19.70;;;10.38;;
22439;SDS011;11387;51.612;7.210;2024-01-30T00:18:27;18.48;;;10.07;;
22439;SDS011;11387;51.612;7.210;2024-01-30T00:20:50;13.10;;;8.90;;
22439;SDS011;11387;51.612;7.210;2024-01-30T00:23:13;16.75;;;10.43;;
22439;SDS011;11387;51.612;7.210;2024-01-30T00:25:36;15.05;;;8.93;;
22439;SDS011;11387;51.612;7.210;2024-01-30T00:28:00;19.38;;;9.52;;
22439;SDS011;11387;51.612;7.210;2024-01-30T00:30:23;15.57;;;9.35;;
22439;SDS011;11387;51.612;7.210;2024-01-30T00:32:47;18.92;;;10.80;;
22439;SDS011;11387;51.612;7.210;2024-01-30T00:35:12;15.38;;;8.63;;
22439;SDS011;11387;51.612;7.210;2024-01-30T00:37:35;18.83;;;9.82;;
22439;SDS011;11387;51.612;7.210;2024-01-30T00:39:59;16.60;;;8.98;;
22439;SDS011;11387;51.612;7.210;2024-01-30T00:42:22;17.00;;;9.23;;
22439;SDS011;11387;51.612;7.210;2024-01-30T00:44:46;16.23;;;10.15;;
22439;SDS011;11387;51.612;7.210;2024-01-30T00:47:09;21.05;;;10.55;;
22439;SDS011;11387;51.612;7.210;2024-01-30T00:49:32;17.20;;;9.75;;
22439;SDS011;11387;51.612;7.210;2024-01-30T00:51:57;13.07;;;8.63;;
22439;SDS011;11387;51.612;7.210;2024-01-30T00:54:21;15.90;;;9.10;;
22439;SDS011;11387;51.612;7.210;2024-01-30T00:56:44;21.73;;;10.68;;
22439;SDS011;11387;51.612;7.210;2024-01-30T00:59:08;14.82;;;9.55;;
22439;SDS011;11387;51.612;7.210;2024-01-30T01:01:31;16.63;;;9.35;;
22439;SDS011;11387;51.612;7.210;2024-01-30T01:03:55;18.70;;;10.40;;
22439;SDS011;11387;51.612;7.210;2024-01-30T01:06:18;15.68;;;9.23;;
22439;SDS011;11387;51.612;7.210;2024-01-30T01:08:43;14.75;;;9.48;;
22439;SDS011;11387;51.612;7.210;2024-01-30T01:11:06;14.90;;;9.05;;
22439;SDS011;11387;51.612;7.210;2024-01-30T01:13:30;13.80;;;8.55;;
22439;SDS011;11387;51.612;7.210;2024-01-30T01:15:54;20.02;;;10.10;;
22439;SDS011;11387;51.612;7.210;2024-01-30T01:18:17;15.90;;;9.50;;
22439;SDS011;11387;51.612;7.210;2024-01-30T01:20:41;15.63;;;9.27;;
22439;SDS011;11387;51.612;7.210;2024-01-30T01:23:04;17.15;;;10.38;;
22439;SDS011;11387;51.612;7.210;2024-01-30T01:25:29;16.83;;;9.18;;
22439;SDS011;11387;51.612;7.210;2024-01-30T01:27:53;18.73;;;10.43;;
22439;SDS011;11387;51.612;7.210;2024-01-30T01:30:17;15.02;;;9.57;;
22439;SDS011;11387;51.612;7.210;2024-01-30T01:32:43;15.63;;;9.18;;
22439;SDS011;11387;51.612;7.210;2024-01-30T01:35:12;16.08;;;9.23;;
22439;SDS011;11387;51.612;7.210;2024-01-30T01:37:36;14.77;;;9.10;;
22439;SDS011;11387;51.612;7.210;2024-01-30T01:40:00;19.65;;;10.43;;
22439;SDS011;11387;51.612;7.210;2024-01-30T01:42:25;14.73;;;9.70;;
22439;SDS011;11387;51.612;7.210;2024-01-30T01:44:48;16.00;;;10.63;;
22439;SDS011;11387;51.612;7.210;2024-01-30T01:47:12;17.98;;;10.45;;
22439;SDS011;11387;51.612;7.210;2024-01-30T01:49:36;15.52;;;9.85;;
22439;SDS011;11387;51.612;7.210;2024-01-30T01:52:00;14.80;;;10.00;;
22439;SDS011;11387;51.612;7.210;2024-01-30T01:54:24;14.00;;;8.70;;
22439;SDS011;11387;51.612;7.210;2024-01-30T01:56:49;19.40;;;9.30;;
22439;SDS011;11387;51.612;7.210;2024-01-30T01:59:15;14.65;;;9.80;;
22439;SDS011;11387;51.612;7.210;2024-01-30T02:01:39;18.38;;;9.70;;
22439;SDS011;11387;51.612;7.210;2024-01-30T02:04:03;19.02;;;9.13;;
22439;SDS011;11387;51.612;7.210;2024-01-30T02:06:27;14.68;;;9.35;;
22439;SDS011;11387;51.612;7.210;2024-01-30T02:08:51;17.52;;;9.63;;
22439;SDS011;11387;51.612;7.210;2024-01-30T02:11:14;14.95;;;9.05;;
22439;SDS011;11387;51.612;7.210;2024-01-30T02:13:38;19.23;;;10.73;;
22439;SDS011;11387;51.612;7.210;2024-01-30T02:16:05;18.63;;;9.25;;
22439;SDS011;11387;51.612;7.210;2024-01-30T02:18:29;20.58;;;10.02;;
22439;SDS011;11387;51.612;7.210;2024-01-30T02:20:53;15.95;;;9.23;;
22439;SDS011;11387;51.612;7.210;2024-01-30T02:23:19;18.77;;;9.30;;
22439;SDS011;11387;51.612;7.210;2024-01-30T02:25:52;15.38;;;8.60;;
22439;SDS011;11387;51.612;7.210;2024-01-30T02:28:16;16.02;;;8.88;;
22439;SDS011;11387;51.612;7.210;2024-01-30T02:30:40;15.88;;;9.40;;
22439;SDS011;11387;51.612;7.210;2024-01-30T02:33:05;15.70;;;9.45;;
22439;SDS011;11387;51.612;7.210;2024-01-30T02:35:29;18.80;;;9.25;;
22439;SDS011;11387;51.612;7.210;2024-01-30T02:37:52;15.57;;;9.05;;
22439;SDS011;11387;51.612;7.210;2024-01-30T02:40:17;16.60;;;9.43;;
22439;SDS011;11387;51.612;7.210;2024-01-30T02:42:41;14.40;;;8.90;;
22439;SDS011;11387;51.612;7.210;2024-01-30T02:45:05;13.20;;;8.57;;
22439;SDS011;11387;51.612;7.210;2024-01-30T02:47:29;15.88;;;9.48;;
22439;SDS011;11387;51.612;7.210;2024-01-30T02:49:52;15.73;;;9.18;;
22439;SDS011;11387;51.612;7.210;2024-01-30T02:52:17;17.40;;;10.43;;
22439;SDS011;11387;51.612;7.210;2024-01-30T02:54:42;15.18;;;9.50;;
22439;SDS011;11387;51.612;7.210;2024-01-30T02:57:07;14.85;;;8.93;;
22439;SDS011;11387;51.612;7.210;2024-01-30T02:59:30;20.48;;;9.98;;
22439;SDS011;11387;51.612;7.210;2024-01-30T03:01:55;17.73;;;9.45;;
22439;SDS011;11387;51.612;7.210;2024-01-30T03:04:19;17.20;;;10.38;;
22439;SDS011;11387;51.612;7.210;2024-01-30T03:06:44;19.38;;;11.10;;
22439;SDS011;11387;51.612;7.210;2024-01-30T03:09:09;20.73;;;10.38;;
22439;SDS011;11387;51.612;7.210;2024-01-30T03:11:32;20.10;;;10.85;;
22439;SDS011;11387;51.612;7.210;2024-01-30T03:13:57;16.05;;;9.50;;
22439;SDS011;11387;51.612;7.210;2024-01-30T03:16:21;19.27;;;11.43;;
22439;SDS011;11387;51.612;7.210;2024-01-30T03:18:44;18.00;;;10.75;;
22439;SDS011;11387;51.612;7.210;2024-01-30T03:21:09;17.35;;;9.95;;
22439;SDS011;11387;51.612;7.210;2024-01-30T03:23:32;18.13;;;10.45;;
22439;SDS011;11387;51.612;7.210;2024-01-30T03:25:56;14.85;;;9.80;;
22439;SDS011;11387;51.612;7.210;2024-01-30T03:28:19;16.25;;;9.63;;
22439;SDS011;11387;51.612;7.210;2024-01-30T03:30:44;13.77;;;9.02;;
22439;SDS011;11387;51.612;7.210;2024-01-30T03:33:07;16.08;;;9.07;;
22439;SDS011;11387;51.612;7.210;2024-01-30T03:35:31;19.83;;;10.10;;
22439;SDS011;11387;51.612;7.210;2024-01-30T03:37:54;21.20;;;9.70;;
22439;SDS011;11387;51.612;7.210;2024-01-30T03:40:18;17.55;;;9.10;;
22439;SDS011;11387;51.612;7.210;2024-01-30T03:42:41;13.77;;;9.43;;
22439;SDS011;11387;51.612;7.210;2024-01-30T03:45:05;17.15;;;10.13;;
22439;SDS011;11387;51.612;7.210;2024-01-30T03:47:30;14.48;;;9.13;;
22439;SDS011;11387;51.612;7.210;2024-01-30T03:49:54;18.55;;;9.00;;
22439;SDS011;11387;51.612;7.210;2024-01-30T03:52:17;18.67;;;8.70;;
22439;SDS011;11387;51.612;7.210;2024-01-30T03:54:41;15.60;;;8.85;;
22439;SDS011;11387;51.612;7.210;2024-01-30T03:57:05;15.23;;;8.65;;
22439;SDS011;11387;51.612;7.210;2024-01-30T03:59:28;16.13;;;8.82;;
22439;SDS011;11387;51.612;7.210;2024-01-30T04:01:52;13.93;;;9.77;;
22439;SDS011;11387;51.612;7.210;2024-01-30T04:04:17;15.20;;;8.75;;
22439;SDS011;11387;51.612;7.210;2024-01-30T04:06:40;20.08;;;9.75;;
22439;SDS011;11387;51.612;7.210;2024-01-30T04:09:04;16.08;;;8.90;;
22439;SDS011;11387;51.612;7.210;2024-01-30T04:11:27;18.55;;;9.75;;
22439;SDS011;11387;51.612;7.210;2024-01-30T04:13:51;23.63;;;14.00;;
22439;SDS011;11387;51.612;7.210;2024-01-30T04:16:19;25.05;;;12.15;;
22439;SDS011;11387;51.612;7.210;2024-01-30T04:18:44;14.05;;;8.23;;
22439;SDS011;11387;51.612;7.210;2024-01-30T04:21:08;15.43;;;8.30;;
22439;SDS011;11387;51.612;7.210;2024-01-30T04:23:32;25.30;;;9.48;;
22439;SDS011;11387;51.612;7.210;2024-01-30T04:25:55;16.27;;;8.65;;
22439;SDS011;11387;51.612;7.210;2024-01-30T04:28:19;21.70;;;9.10;;
22439;SDS011;11387;51.612;7.210;2024-01-30T04:30:42;14.18;;;8.40;;
22439;SDS011;11387;51.612;7.210;2024-01-30T04:33:06;16.80;;;9.10;;
22439;SDS011;11387;51.612;7.210;2024-01-30T04:35:29;14.30;;;8.02;;
22439;SDS011;11387;51.612;7.210;2024-01-30T04:38:12;11.93;;;8.35;;
22439;SDS011;11387;51.612;7.210;2024-01-30T04:40:36;15.65;;;9.13;;
22439;SDS011;11387;51.612;7.210;2024-01-30T04:43:00;13.77;;;8.20;;
22439;SDS011;11387;51.612;7.210;2024-01-30T04:45:23;15.25;;;8.48;;
22439;SDS011;11387;51.612;7.210;2024-01-30T04:47:47;16.95;;;8.75;;
22439;SDS011;11387;51.612;7.210;2024-01-30T04:50:10;16.85;;;9.15;;
22439;SDS011;11387;51.612;7.210;2024-01-30T04:52:38;16.20;;;8.35;;
22439;SDS011;11387;51.612;7.210;2024-01-30T04:55:03;15.43;;;8.40;;
22439;SDS011;11387;51.612;7.210;2024-01-30T04:57:26;14.75;;;8.38;;
22439;SDS011;11387;51.612;7.210;2024-01-30T04:59:50;14.90;;;8.75;;
22439;SDS011;11387;51.612;7.210;2024-01-30T05:02:14;16.92;;;8.32;;
22439;SDS011;11387;51.612;7.210;2024-01-30T05:04:38;15.35;;;8.82;;
22439;SDS011;11387;51.612;7.210;2024-01-30T05:07:04;17.88;;;9.80;;
22439;SDS011;11387;51.612;7.210;2024-01-30T05:09:27;15.55;;;8.57;;
22439;SDS011;11387;51.612;7.210;2024-01-30T05:11:52;15.52;;;9.13;;
22439;SDS011;11387;51.612;7.210;2024-01-30T05:14:16;14.20;;;8.52;;
22439;SDS011;11387;51.612;7.210;2024-01-30T05:16:40;13.98;;;8.60;;
22439;SDS011;11387;51.612;7.210;2024-01-30T05:19:03;14.55;;;9.23;;
22439;SDS011;11387;51.612;7.210;2024-01-30T05:21:27;16.30;;;8.10;;
22439;SDS011;11387;51.612;7.210;2024-01-30T05:23:51;17.17;;;8.15;;
22439;SDS011;11387;51.612;7.210;2024-01-30T05:26:14;15.35;;;8.85;;
22439;SDS011;11387;51.612;7.210;2024-01-30T05:28:40;15.57;;;8.57;;
22439;SDS011;11387;51.612;7.210;2024-01-30T05:31:04;15.50;;;7.95;;
22439;SDS011;11387;51.612;7.210;2024-01-30T05:33:27;15.20;;;9.35;;
22439;SDS011;11387;51.612;7.210;2024-01-30T05:35:51;15.23;;;8.32;;
22439;SDS011;11387;51.612;7.210;2024-01-30T05:38:16;16.05;;;9.20;;
22439;SDS011;11387;51.612;7.210;2024-01-30T05:40:39;18.85;;;8.25;;
22439;SDS011;11387;51.612;7.210;2024-01-30T05:43:03;16.55;;;9.88;;
22439;SDS011;11387;51.612;7.210;2024-01-30T05:45:28;18.10;;;9.30;;
22439;SDS011;11387;51.612;7.210;2024-01-30T05:47:51;15.98;;;8.48;;
22439;SDS011;11387;51.612;7.210;2024-01-30T05:50:15;13.65;;;8.95;;
22439;SDS011;11387;51.612;7.210;2024-01-30T05:52:39;13.30;;;7.75;;
22439;SDS011;11387;51.612;7.210;2024-01-30T05:55:02;14.88;;;8.60;;
22439;SDS011;11387;51.612;7.210;2024-01-30T05:57:26;14.68;;;9.27;;
22439;SDS011;11387;51.612;7.210;2024-01-30T05:59:50;20.58;;;9.45;;
22439;SDS011;11387;51.612;7.210;2024-01-30T06:02:15;16.58;;;8.93;;
22439;SDS011;11387;51.612;7.210;2024-01-30T06:04:39;16.50;;;8.73;;
22439;SDS011;11387;51.612;7.210;2024-01-30T06:07:03;20.23;;;9.13;;
22439;SDS011;11387;51.612;7.210;2024-01-30T06:09:28;16.42;;;9.18;;
22439;SDS011;11387;51.612;7.210;2024-01-30T06:11:52;14.07;;;9.13;;
22439;SDS011;11387;51.612;7.210;2024-01-30T06:14:15;16.85;;;9.30;;
22439;SDS011;11387;51.612;7.210;2024-01-30T06:16:39;15.73;;;8.82;;
22439;SDS011;11387;51.612;7.210;2024-01-30T06:19:06;14.02;;;7.78;;
22439;SDS011;11387;51.612;7.210;2024-01-30T06:21:29;14.13;;;9.18;;
22439;SDS011;11387;51.612;7.210;2024-01-30T06:23:53;15.32;;;8.82;;
22439;SDS011;11387;51.612;7.210;2024-01-30T06:26:17;15.38;;;8.40;;
22439;SDS011;11387;51.612;7.210;2024-01-30T06:28:40;12.10;;;8.23;;
22439;SDS011;11387;51.612;7.210;2024-01-30T06:31:04;11.90;;;7.72;;
22439;SDS011;11387;51.612;7.210;2024-01-30T06:33:27;12.68;;;7.95;;
22439;SDS011;11387;51.612;7.210;2024-01-30T06:35:52;15.63;;;7.53;;
22439;SDS011;11387;51.612;7.210;2024-01-30T06:38:16;13.40;;;8.48;;
22439;SDS011;11387;51.612;7.210;2024-01-30T06:40:39;16.73;;;8.95;;
22439;SDS011;11387;51.612;7.210;2024-01-30T06:43:04;15.15;;;8.50;;
22439;SDS011;11387;51.612;7.210;2024-01-30T06:45:28;13.40;;;7.88;;
22439;SDS011;11387;51.612;7.210;2024-01-30T06:47:51;14.63;;;8.10;;
22439;SDS011;11387;51.612;7.210;2024-01-30T06:50:15;14.13;;;8.68;;
22439;SDS011;11387;51.612;7.210;2024-01-30T06:52:40;14.25;;;8.02;;
22439;SDS011;11387;51.612;7.210;2024-01-30T06:55:03;16.42;;;8.48;;
22439;SDS011;11387;51.612;7.210;2024-01-30T06:57:27;20.67;;;9.68;;
22439;SDS011;11387;51.612;7.210;2024-01-30T06:59:52;24.50;;;8.85;;
22439;SDS011;11387;51.612;7.210;2024-01-30T07:02:16;21.38;;;8.48;;
22439;SDS011;11387;51.612;7.210;2024-01-30T07:04:39;15.35;;;9.20;;
22439;SDS011;11387;51.612;7.210;2024-01-30T07:07:08;15.98;;;8.40;;
22439;SDS011;11387;51.612;7.210;2024-01-30T07:09:36;15.55;;;8.60;;
22439;SDS011;11387;51.612;7.210;2024-01-30T07:11:59;13.13;;;7.82;;
22439;SDS011;11387;51.612;7.210;2024-01-30T07:14:23;12.82;;;8.00;;
22439;SDS011;11387;51.612;7.210;2024-01-30T07:16:47;14.40;;;8.65;;
22439;SDS011;11387;51.612;7.210;2024-01-30T07:19:10;14.27;;;8.50;;
22439;SDS011;11387;51.612;7.210;2024-01-30T07:21:34;16.50;;;8.82;;
22439;SDS011;11387;51.612;7.210;2024-01-30T07:23:57;15.63;;;8.25;;
22439;SDS011;11387;51.612;7.210;2024-01-30T07:26:22;14.93;;;8.82;;
22439;SDS011;11387;51.612;7.210;2024-01-30T07:28:46;18.30;;;9.90;;
22439;SDS011;11387;51.612;7.210;2024-01-30T07:31:09;21.58;;;11.73;;
22439;SDS011;11387;51.612;7.210;2024-01-30T07:33:33;16.40;;;9.52;;
22439;SDS011;11387;51.612;7.210;2024-01-30T07:36:06;17.08;;;9.52;;
22439;SDS011;11387;51.612;7.210;2024-01-30T07:38:31;14.40;;;9.35;;
22439;SDS011;11387;51.612;7.210;2024-01-30T07:40:55;16.33;;;8.85;;
22439;SDS011;11387;51.612;7.210;2024-01-30T07:43:20;19.50;;;8.38;;
22439;SDS011;11387;51.612;7.210;2024-01-30T07:45:45;12.85;;;7.63;;
22439;SDS011;11387;51.612;7.210;2024-01-30T07:48:08;15.85;;;8.80;;
22439;SDS011;11387;51.612;7.210;2024-01-30T07:50:32;20.25;;;9.45;;
22439;SDS011;11387;51.612;7.210;2024-01-30T07:52:58;21.80;;;8.13;;
22439;SDS011;11387;51.612;7.210;2024-01-30T07:55:23;14.52;;;7.90;;
22439;SDS011;11387;51.612;7.210;2024-01-30T07:57:49;13.45;;;8.00;;
22439;SDS011;11387;51.612;7.210;2024-01-30T08:00:16;15.32;;;8.02;;
22439;SDS011;11387;51.612;7.210;2024-01-30T08:02:41;20.15;;;8.63;;
22439;SDS011;11387;51.612;7.210;2024-01-30T08:05:05;14.10;;;7.32;;
22439;SDS011;11387;51.612;7.210;2024-01-30T08:07:34;13.93;;;7.75;;
22439;SDS011;11387;51.612;7.210;2024-01-30T08:09:58;13.57;;;7.57;;
22439;SDS011;11387;51.612;7.210;2024-01-30T08:12:25;13.98;;;6.85;;
22439;SDS011;11387;51.612;7.210;2024-01-30T08:14:48;15.07;;;6.90;;
22439;SDS011;11387;51.612;7.210;2024-01-30T08:17:13;14.20;;;7.85;;
22439;SDS011;11387;51.612;7.210;2024-01-30T08:19:37;15.50;;;6.80;;
22439;SDS011;11387;51.612;7.210;2024-01-30T08:22:01;16.02;;;7.75;;
22439;SDS011;11387;51.612;7.210;2024-01-30T08:24:25;13.23;;;7.20;;
22439;SDS011;11387;51.612;7.210;2024-01-30T08:26:48;12.90;;;6.78;;
22439;SDS011;11387;51.612;7.210;2024-01-30T08:29:12;11.30;;;6.57;;
22439;SDS011;11387;51.612;7.210;2024-01-30T08:31:36;13.63;;;6.10;;
22439;SDS011;11387;51.612;7.210;2024-01-30T08:34:01;14.45;;;6.70;;
22439;SDS011;11387;51.612;7.210;2024-01-30T08:36:25;13.93;;;6.40;;
22439;SDS011;11387;51.612;7.210;2024-01-30T08:38:49;13.75;;;6.97;;
22439;SDS011;11387;51.612;7.210;2024-01-30T08:41:16;14.95;;;6.53;;
22439;SDS011;11387;51.612;7.210;2024-01-30T08:43:38;12.70;;;5.93;;
22439;SDS011;11387;51.612;7.210;2024-01-30T08:46:03;23.17;;;6.90;;
22439;SDS011;11387;51.612;7.210;2024-01-30T08:48:26;9.35;;;5.47;;
22439;SDS011;11387;51.612;7.210;2024-01-30T08:50:52;13.60;;;6.78;;
22439;SDS011;11387;51.612;7.210;2024-01-30T08:53:16;14.43;;;6.40;;
22439;SDS011;11387;51.612;7.210;2024-01-30T08:55:39;17.02;;;7.25;;
22439;SDS011;11387;51.612;7.210;2024-01-30T08:58:03;16.92;;;7.32;;
22439;SDS011;11387;51.612;7.210;2024-01-30T09:00:27;10.65;;;5.95;;
22439;SDS011;11387;51.612;7.210;2024-01-30T09:03:06;10.27;;;6.53;;
22439;SDS011;11387;51.612;7.210;2024-01-30T09:05:30;15.35;;;5.97;;
22439;SDS011;11387;51.612;7.210;2024-01-30T09:07:55;14.00;;;6.40;;
22439;SDS011;11387;51.612;7.210;2024-01-30T09:10:19;12.07;;;6.20;;
22439;SDS011;11387;51.612;7.210;2024-01-30T09:12:43;14.32;;;6.40;;
22439;SDS011;11387;51.612;7.210;2024-01-30T09:15:07;15.63;;;7.55;;
22439;SDS011;11387;51.612;7.210;2024-01-30T09:17:31;16.00;;;5.65;;
22439;SDS011;11387;51.612;7.210;2024-01-30T09:19:55;12.18;;;6.35;;
22439;SDS011;11387;51.612;7.210;2024-01-30T09:22:19;13.30;;;6.30;;
22439;SDS011;11387;51.612;7.210;2024-01-30T09:24:44;13.88;;;6.72;;
22439;SDS011;11387;51.612;7.210;2024-01-30T09:27:08;21.33;;;7.45;;
22439;SDS011;11387;51.612;7.210;2024-01-30T09:29:32;17.10;;;6.45;;
22439;SDS011;11387;51.612;7.210;2024-01-30T09:31:59;13.95;;;6.05;;
22439;SDS011;11387;51.612;7.210;2024-01-30T09:34:23;15.95;;;5.75;;
22439;SDS011;11387;51.612;7.210;2024-01-30T09:36:47;14.52;;;6.53;;
22439;SDS011;11387;51.612;7.210;2024-01-30T09:39:10;11.48;;;5.82;;
22439;SDS011;11387;51.612;7.210;2024-01-30T09:41:36;17.65;;;6.03;;
22439;SDS011;11387;51.612;7.210;2024-01-30T09:44:08;14.95;;;6.70;;
22439;SDS011;11387;51.612;7.210;2024-01-30T09:46:33;10.88;;;5.95;;
22439;SDS011;11387;51.612;7.210;2024-01-30T09:48:58;11.63;;;5.95;;
22439;SDS011;11387;51.612;7.210;2024-01-30T09:51:23;9.75;;;6.75;;
22439;SDS011;11387;51.612;7.210;2024-01-30T09:53:48;10.93;;;5.95;;
22439;SDS011;11387;51.612;7.210;2024-01-30T09:58:43;14.48;;;5.53;;
22439;SDS011;11387;51.612;7.210;2024-01-30T10:01:09;17.90;;;6.10;;
22439;SDS011;11387;51.612;7.210;2024-01-30T10:03:33;11.77;;;6.10;;
22439;SDS011;11387;51.612;7.210;2024-01-30T10:05:57;15.98;;;6.00;;
22439;SDS011;11387;51.612;7.210;2024-01-30T10:08:26;20.65;;;6.63;;
22439;SDS011;11387;51.612;7.210;2024-01-30T10:10:51;21.20;;;6.95;;
22439;SDS011;11387;51.612;7.210;2024-01-30T10:13:16;21.95;;;7.05;;
22439;SDS011;11387;51.612;7.210;2024-01-30T10:15:41;15.50;;;6.30;;
22439;SDS011;11387;51.612;7.210;2024-01-30T10:18:05;15.88;;;6.10;;
22439;SDS011;11387;51.612;7.210;2024-01-30T10:20:30;13.30;;;5.72;;
22439;SDS011;11387;51.612;7.210;2024-01-30T10:22:54;32.53;;;7.93;;
22439;SDS011;11387;51.612;7.210;2024-01-30T10:25:18;10.57;;;5.38;;
22439;SDS011;11387;51.612;7.210;2024-01-30T10:27:44;14.40;;;6.18;;
22439;SDS011;11387;51.612;7.210;2024-01-30T10:30:11;9.38;;;4.82;;
22439;SDS011;11387;51.612;7.210;2024-01-30T10:32:37;10.13;;;4.85;;
22439;SDS011;11387;51.612;7.210;2024-01-30T10:35:01;12.60;;;4.85;;
22439;SDS011;11387;51.612;7.210;2024-01-30T10:37:25;9.00;;;4.65;;
22439;SDS011;11387;51.612;7.210;2024-01-30T10:39:53;9.02;;;4.35;;
22439;SDS011;11387;51.612;7.210;2024-01-30T10:42:18;13.25;;;5.47;;
22439;SDS011;11387;51.612;7.210;2024-01-30T10:44:44;8.40;;;4.88;;
22439;SDS011;11387;51.612;7.210;2024-01-30T10:47:17;13.25;;;5.38;;
22439;SDS011;11387;51.612;7.210;2024-01-30T10:49:46;9.68;;;4.90;;
22439;SDS011;11387;51.612;7.210;2024-01-30T10:52:10;10.52;;;4.93;;
22439;SDS011;11387;51.612;7.210;2024-01-30T10:54:36;12.18;;;4.80;;
22439;SDS011;11387;51.612;7.210;2024-01-30T10:57:00;11.77;;;4.88;;
22439;SDS011;11387;51.612;7.210;2024-01-30T10:59:26;11.30;;;5.32;;
22439;SDS011;11387;51.612;7.210;2024-01-30T11:01:50;10.45;;;4.93;;
22439;SDS011;11387;51.612;7.210;2024-01-30T11:04:15;14.07;;;4.88;;
22439;SDS011;11387;51.612;7.210;2024-01-30T11:06:41;17.65;;;5.43;;
22439;SDS011;11387;51.612;7.210;2024-01-30T11:09:06;17.25;;;5.32;;
22439;SDS011;11387;51.612;7.210;2024-01-30T11:11:47;11.43;;;5.57;;
22439;SDS011;11387;51.612;7.210;2024-01-30T11:14:12;7.80;;;5.25;;
22439;SDS011;11387;51.612;7.210;2024-01-30T11:16:36;14.50;;;5.50;;
22439;SDS011;11387;51.612;7.210;2024-01-30T11:19:10;14.52;;;5.72;;
22439;SDS011;11387;51.612;7.210;2024-01-30T11:21:38;13.45;;;5.18;;
22439;SDS011;11387;51.612;7.210;2024-01-30T11:24:06;14.48;;;5.45;;
22439;SDS011;11387;51.612;7.210;2024-01-30T11:26:31;13.18;;;4.78;;
22439;SDS011;11387;51.612;7.210;2024-01-30T11:28:55;11.98;;;5.97;;
22439;SDS011;11387;51.612;7.210;2024-01-30T11:31:19;9.60;;;5.43;;
22439;SDS011;11387;51.612;7.210;2024-01-30T11:33:42;19.52;;;5.70;;
22439;SDS011;11387;51.612;7.210;2024-01-30T11:36:06;11.95;;;4.97;;
22439;SDS011;11387;51.612;7.210;2024-01-30T11:38:33;10.40;;;5.82;;
22439;SDS011;11387;51.612;7.210;2024-01-30T11:40:57;12.27;;;5.88;;
22439;SDS011;11387;51.612;7.210;2024-01-30T11:43:21;15.80;;;5.68;;
22439;SDS011;11387;51.612;7.210;2024-01-30T11:45:44;16.25;;;5.18;;
22439;SDS011;11387;51.612;7.210;2024-01-30T11:48:08;14.77;;;6.20;;
22439;SDS011;11387;51.612;7.210;2024-01-30T11:50:35;13.13;;;5.43;;
22439;SDS011;11387;51.612;7.210;2024-01-30T11:53:00;17.45;;;6.35;;
22439;SDS011;11387;51.612;7.210;2024-01-30T11:55:26;14.82;;;5.90;;
22439;SDS011;11387;51.612;7.210;2024-01-30T11:57:55;17.67;;;6.65;;
22439;SDS011;11387;51.612;7.210;2024-01-30T12:00:19;12.02;;;5.75;;
22439;SDS011;11387;51.612;7.210;2024-01-30T12:02:43;16.15;;;5.97;;
22439;SDS011;11387;51.612;7.210;2024-01-30T12:05:07;14.43;;;5.80;;
22439;SDS011;11387;51.612;7.210;2024-01-30T12:07:31;17.20;;;6.32;;
22439;SDS011;11387;51.612;7.210;2024-01-30T12:09:55;15.15;;;5.90;;
22439;SDS011;11387;51.612;7.210;2024-01-30T12:12:20;18.55;;;7.00;;
22439;SDS011;11387;51.612;7.210;2024-01-30T12:14:45;12.00;;;6.05;;
22439;SDS011;11387;51.612;7.210;2024-01-30T12:17:22;14.13;;;5.70;;
22439;SDS011;11387;51.612;7.210;2024-01-30T12:19:47;15.48;;;6.47;;
22439;SDS011;11387;51.612;7.210;2024-01-30T12:22:10;18.02;;;6.07;;
22439;SDS011;11387;51.612;7.210;2024-01-30T12:24:34;19.45;;;7.43;;
22439;SDS011;11387;51.612;7.210;2024-01-30T12:26:58;16.63;;;6.40;;
22439;SDS011;11387;51.612;7.210;2024-01-30T12:29:24;13.77;;;6.03;;
22439;SDS011;11387;51.612;7.210;2024-01-30T12:31:53;18.38;;;6.55;;
22439;SDS011;11387;51.612;7.210;2024-01-30T12:34:17;16.15;;;7.22;;
22439;SDS011;11387;51.612;7.210;2024-01-30T12:36:43;12.15;;;6.45;;
22439;SDS011;11387;51.612;7.210;2024-01-30T12:39:06;14.90;;;7.25;;
22439;SDS011;11387;51.612;7.210;2024-01-30T12:41:34;18.45;;;7.00;;
22439;SDS011;11387;51.612;7.210;2024-01-30T12:43:58;16.52;;;7.40;;
22439;SDS011;11387;51.612;7.210;2024-01-30T12:46:26;16.50;;;7.25;;
22439;SDS011;11387;51.612;7.210;2024-01-30T12:48:51;17.73;;;7.22;;
22439;SDS011;11387;51.612;7.210;2024-01-30T12:51:15;24.75;;;7.88;;
22439;SDS011;11387;51.612;7.210;2024-01-30T12:53:39;18.27;;;7.10;;
22439;SDS011;11387;51.612;7.210;2024-01-30T12:56:03;15.23;;;6.85;;
22439;SDS011;11387;51.612;7.210;2024-01-30T12:58:27;15.80;;;7.25;;
22439;SDS011;11387;51.612;7.210;2024-01-30T13:00:50;14.98;;;7.00;;
22439;SDS011;11387;51.612;7.210;2024-01-30T13:03:16;17.42;;;6.82;;
22439;SDS011;11387;51.612;7.210;2024-01-30T13:05:40;15.68;;;6.07;;
22439;SDS011;11387;51.612;7.210;2024-01-30T13:08:03;22.50;;;7.05;;
22439;SDS011;11387;51.612;7.210;2024-01-30T13:10:27;20.25;;;7.40;;
22439;SDS011;11387;51.612;7.210;2024-01-30T13:12:53;14.38;;;5.80;;
22439;SDS011;11387;51.612;7.210;2024-01-30T13:15:17;17.38;;;7.18;;
22439;SDS011;11387;51.612;7.210;2024-01-30T13:17:42;19.73;;;7.70;;
22439;SDS011;11387;51.612;7.210;2024-01-30T13:20:08;15.05;;;7.45;;
22439;SDS011;11387;51.612;7.210;2024-01-30T13:22:34;20.92;;;6.95;;
22439;SDS011;11387;51.612;7.210;2024-01-30T13:24:57;17.58;;;7.57;;
22439;SDS011;11387;51.612;7.210;2024-01-30T13:27:21;14.95;;;7.53;;
22439;SDS011;11387;51.612;7.210;2024-01-30T13:29:45;15.07;;;7.43;;
22439;SDS011;11387;51.612;7.210;2024-01-30T13:32:09;16.45;;;6.65;;
22439;SDS011;11387;51.612;7.210;2024-01-30T13:34:32;15.88;;;6.97;;
22439;SDS011;11387;51.612;7.210;2024-01-30T13:36:58;17.17;;;7.40;;
22439;SDS011;11387;51.612;7.210;2024-01-30T13:39:21;17.95;;;7.38;;
22439;SDS011;11387;51.612;7.210;2024-01-30T13:41:51;12.68;;;6.43;;
22439;SDS011;11387;51.612;7.210;2024-01-30T13:44:15;15.98;;;6.70;;
22439;SDS011;11387;51.612;7.210;2024-01-30T13:46:39;16.33;;;6.22;;
22439;SDS011;11387;51.612;7.210;2024-01-30T13:49:02;14.50;;;7.05;;
22439;SDS011;11387;51.612;7.210;2024-01-30T13:51:26;22.08;;;7.78;;
22439;SDS011;11387;51.612;7.210;2024-01-30T13:53:51;19.13;;;7.72;;
22439;SDS011;11387;51.612;7.210;2024-01-30T13:56:14;18.33;;;8.07;;
22439;SDS011;11387;51.612;7.210;2024-01-30T13:58:38;15.13;;;7.57;;
22439;SDS011;11387;51.612;7.210;2024-01-30T14:01:02;17.80;;;7.82;;
22439;SDS011;11387;51.612;7.210;2024-01-30T14:03:27;17.13;;;7.47;;
22439;SDS011;11387;51.612;7.210;2024-01-30T14:05:51;16.45;;;7.60;;
22439;SDS011;11387;51.612;7.210;2024-01-30T14:08:15;18.38;;;8.10;;
22439;SDS011;11387;51.612;7.210;2024-01-30T14:10:40;15.63;;;7.32;;
22439;SDS011;11387;51.612;7.210;2024-01-30T14:13:04;15.43;;;6.85;;
22439;SDS011;11387;51.612;7.210;2024-01-30T14:15:27;15.73;;;7.20;;
22439;SDS011;11387;51.612;7.210;2024-01-30T14:17:51;16.55;;;7.55;;
22439;SDS011;11387;51.612;7.210;2024-01-30T14:20:15;13.88;;;7.88;;